sensor_id;sensor_type;location;lat;lon;timestamp;pressure;altitude;pressure_sealevel;temperature
76009;BMP280;64700;52.130;21.270;2023-11-18T00:01:30;100658.63;;;18.92
76009;BMP280;64700;52.130;21.270;2023-11-18T00:03:56;100657.41;;;18.93
76009;BMP280;64700;52.130;21.270;2023-11-18T00:06:21;100659.38;;;18.93
76009;BMP280;64700;52.130;21.270;2023-11-18T00:08:46;100657.13;;;18.91
76009;BMP280;64700;52.130;21.270;2023-11-18T00:11:11;100661.03;;;18.90
76009;BMP280;64700;52.130;21.270;2023-11-18T00:13:36;100663.16;;;18.95
76009;BMP280;64700;52.130;21.270;2023-11-18T00:16:04;100659.22;;;18.96
76009;BMP280;64700;52.130;21.270;2023-11-18T00:18:29;100660.13;;;18.93
76009;BMP280;64700;52.130;21.270;2023-11-18T00:20:56;100667.81;;;18.95
76009;BMP280;64700;52.130;21.270;2023-11-18T00:23:22;100666.63;;;18.96
76009;BMP280;64700;52.130;21.270;2023-11-18T00:25:47;100669.00;;;18.94
76009;BMP280;64700;52.130;21.270;2023-11-18T00:28:12;100675.34;;;18.91
76009;BMP280;64700;52.130;21.270;2023-11-18T00:30:37;100681.81;;;18.93
76009;BMP280;64700;52.130;21.270;2023-11-18T00:33:03;100683.00;;;18.92
76009;BMP280;64700;52.130;21.270;2023-11-18T00:35:28;100676.81;;;18.92
76009;BMP280;64700;52.130;21.270;2023-11-18T00:37:56;100695.34;;;18.93
76009;BMP280;64700;52.130;21.270;2023-11-18T00:40:22;100693.09;;;18.92
76009;BMP280;64700;52.130;21.270;2023-11-18T00:42:47;100690.84;;;18.90
76009;BMP280;64700;52.130;21.270;2023-11-18T00:45:12;100679.53;;;18.92
76009;BMP280;64700;52.130;21.270;2023-11-18T00:47:38;100687.38;;;18.90
76009;BMP280;64700;52.130;21.270;2023-11-18T00:50:03;100695.06;;;18.91
76009;BMP280;64700;52.130;21.270;2023-11-18T00:52:28;100692.78;;;18.90
76009;BMP280;64700;52.130;21.270;2023-11-18T00:54:53;100692.03;;;18.89
76009;BMP280;64700;52.130;21.270;2023-11-18T00:57:19;100691.72;;;18.87
76009;BMP280;64700;52.130;21.270;2023-11-18T00:59:44;100706.47;;;18.86
76009;BMP280;64700;52.130;21.270;2023-11-18T01:02:09;100706.13;;;18.84
76009;BMP280;64700;52.130;21.270;2023-11-18T01:04:34;100717.72;;;18.84
76009;BMP280;64700;52.130;21.270;2023-11-18T01:06:59;100714.69;;;18.82
76009;BMP280;64700;52.130;21.270;2023-11-18T01:09:25;100706.13;;;18.84
76009;BMP280;64700;52.130;21.270;2023-11-18T01:11:50;100715.03;;;18.84
76009;BMP280;64700;52.130;21.270;2023-11-18T01:14:15;100713.66;;;18.80
76009;BMP280;64700;52.130;21.270;2023-11-18T01:16:41;100710.78;;;18.83
76009;BMP280;64700;52.130;21.270;2023-11-18T01:19:08;100707.91;;;18.78
76009;BMP280;64700;52.130;21.270;2023-11-18T01:21:34;100708.22;;;18.80
76009;BMP280;64700;52.130;21.270;2023-11-18T01:23:59;100709.28;;;18.82
76009;BMP280;64700;52.130;21.270;2023-11-18T01:26:24;100710.03;;;18.83
76009;BMP280;64700;52.130;21.270;2023-11-18T01:28:50;100709.41;;;18.79
76009;BMP280;64700;52.130;21.270;2023-11-18T01:31:15;100709.88;;;18.77
76009;BMP280;64700;52.130;21.270;2023-11-18T01:33:40;100703.25;;;18.78
76009;BMP280;64700;52.130;21.270;2023-11-18T01:36:06;100698.00;;;18.84
76009;BMP280;64700;52.130;21.270;2023-11-18T01:38:31;100695.66;;;18.86
76009;BMP280;64700;52.130;21.270;2023-11-18T01:40:57;100702.56;;;18.87
76009;BMP280;64700;52.130;21.270;2023-11-18T01:43:22;100695.66;;;18.86
76009;BMP280;64700;52.130;21.270;2023-11-18T01:45:47;100689.47;;;18.85
76009;BMP280;64700;52.130;21.270;2023-11-18T01:48:13;100687.16;;;18.84
76009;BMP280;64700;52.130;21.270;2023-11-18T01:50:39;100691.53;;;18.81
76009;BMP280;64700;52.130;21.270;2023-11-18T01:53:05;100688.81;;;18.81
76009;BMP280;64700;52.130;21.270;2023-11-18T01:55:30;100692.13;;;18.76
76009;BMP280;64700;52.130;21.270;2023-11-18T01:57:56;100693.63;;;18.77
76009;BMP280;64700;52.130;21.270;2023-11-18T02:00:24;100696.78;;;18.76
76009;BMP280;64700;52.130;21.270;2023-11-18T02:02:50;100696.44;;;18.74
76009;BMP280;64700;52.130;21.270;2023-11-18T02:05:15;100700.81;;;18.71
76009;BMP280;64700;52.130;21.270;2023-11-18T02:07:41;100702.78;;;18.71
76009;BMP280;64700;52.130;21.270;2023-11-18T02:10:07;100711.00;;;18.67
76009;BMP280;64700;52.130;21.270;2023-11-18T02:12:38;100705.88;;;18.69
76009;BMP280;64700;52.130;21.270;2023-11-18T02:15:05;100710.09;;;18.70
76009;BMP280;64700;52.130;21.270;2023-11-18T02:17:35;100713.59;;;18.71
76009;BMP280;64700;52.130;21.270;2023-11-18T02:20:02;100709.81;;;18.68
76009;BMP280;64700;52.130;21.270;2023-11-18T02:22:31;100698.97;;;18.68
76009;BMP280;64700;52.130;21.270;2023-11-18T02:24:56;100709.06;;;18.68
76009;BMP280;64700;52.130;21.270;2023-11-18T02:27:22;100709.50;;;18.66
76009;BMP280;64700;52.130;21.270;2023-11-18T02:29:49;100702.88;;;18.67
76009;BMP280;64700;52.130;21.270;2023-11-18T02:34:43;100715.97;;;18.69
76009;BMP280;64700;52.130;21.270;2023-11-18T02:37:13;100720.31;;;18.66
76009;BMP280;64700;52.130;21.270;2023-11-18T02:39:39;100728.13;;;18.64
76009;BMP280;64700;52.130;21.270;2023-11-18T02:42:06;100728.59;;;18.63
76009;BMP280;64700;52.130;21.270;2023-11-18T02:44:33;100733.25;;;18.62
76009;BMP280;64700;52.130;21.270;2023-11-18T02:46:59;100729.78;;;18.62
76009;BMP280;64700;52.130;21.270;2023-11-18T02:49:24;100736.41;;;18.61
76009;BMP280;64700;52.130;21.270;2023-11-18T02:51:50;100733.38;;;18.59
76009;BMP280;64700;52.130;21.270;2023-11-18T02:54:15;100732.16;;;18.60
76009;BMP280;64700;52.130;21.270;2023-11-18T02:56:41;100732.50;;;18.62
76009;BMP280;64700;52.130;21.270;2023-11-18T02:59:06;100726.47;;;18.58
76009;BMP280;64700;52.130;21.270;2023-11-18T03:01:32;100731.88;;;18.58
76009;BMP280;64700;52.130;21.270;2023-11-18T03:03:58;100735.34;;;18.58
76009;BMP280;64700;52.130;21.270;2023-11-18T03:06:24;100748.31;;;18.63
76009;BMP280;64700;52.130;21.270;2023-11-18T03:08:50;100739.84;;;18.61
76009;BMP280;64700;52.130;21.270;2023-11-18T03:11:15;100742.25;;;18.59
76009;BMP280;64700;52.130;21.270;2023-11-18T03:13:40;100748.97;;;18.55
76009;BMP280;64700;52.130;21.270;2023-11-18T03:16:08;100748.56;;;18.56
76009;BMP280;64700;52.130;21.270;2023-11-18T03:18:36;100761.66;;;18.58
76009;BMP280;64700;52.130;21.270;2023-11-18T03:21:03;100756.69;;;18.56
76009;BMP280;64700;52.130;21.270;2023-11-18T03:23:28;100757.44;;;18.57
76009;BMP280;64700;52.130;21.270;2023-11-18T03:25:53;100758.59;;;18.56
76009;BMP280;64700;52.130;21.270;2023-11-18T03:28:20;100757.09;;;18.55
76009;BMP280;64700;52.130;21.270;2023-11-18T03:30:45;100763.72;;;18.54
76009;BMP280;64700;52.130;21.270;2023-11-18T03:33:11;100767.63;;;18.53
76009;BMP280;64700;52.130;21.270;2023-11-18T03:35:37;100763.72;;;18.54
76009;BMP280;64700;52.130;21.270;2023-11-18T03:38:02;100764.59;;;18.51
76009;BMP280;64700;52.130;21.270;2023-11-18T03:40:28;100762.63;;;18.51
76009;BMP280;64700;52.130;21.270;2023-11-18T03:42:54;100767.75;;;18.49
76009;BMP280;64700;52.130;21.270;2023-11-18T03:45:19;100771.22;;;18.50
76009;BMP280;64700;52.130;21.270;2023-11-18T03:47:45;100772.72;;;18.51
76009;BMP280;64700;52.130;21.270;2023-11-18T03:50:12;100791.22;;;18.52
76009;BMP280;64700;52.130;21.270;2023-11-18T03:52:38;100785.50;;;18.50
76009;BMP280;64700;52.130;21.270;2023-11-18T03:55:03;100782.78;;;18.50
76009;BMP280;64700;52.130;21.270;2023-11-18T03:57:29;100792.13;;;18.49
76009;BMP280;64700;52.130;21.270;2023-11-18T03:59:54;100791.66;;;18.51
76009;BMP280;64700;52.130;21.270;2023-11-18T04:02:20;100792.00;;;18.53
76009;BMP280;64700;52.130;21.270;2023-11-18T04:04:45;100790.69;;;18.57
76009;BMP280;64700;52.130;21.270;2023-11-18T04:07:10;100795.00;;;18.55
76009;BMP280;64700;52.130;21.270;2023-11-18T04:09:35;100790.47;;;18.52
76009;BMP280;64700;52.130;21.270;2023-11-18T04:12:00;100790.91;;;18.50
76009;BMP280;64700;52.130;21.270;2023-11-18T04:14:26;100795.47;;;18.53
76009;BMP280;64700;52.130;21.270;2023-11-18T04:16:51;100792.28;;;18.55
76009;BMP280;64700;52.130;21.270;2023-11-18T04:19:16;100796.78;;;18.49
76009;BMP280;64700;52.130;21.270;2023-11-18T04:21:42;100796.47;;;18.46
76009;BMP280;64700;52.130;21.270;2023-11-18T04:24:08;100797.66;;;18.45
76009;BMP280;64700;52.130;21.270;2023-11-18T04:26:34;100795.69;;;18.46
76009;BMP280;64700;52.130;21.270;2023-11-18T04:28:59;100794.63;;;18.43
76009;BMP280;64700;52.130;21.270;2023-11-18T04:31:25;100803.19;;;18.42
76009;BMP280;64700;52.130;21.270;2023-11-18T04:33:50;100800.16;;;18.40
76009;BMP280;64700;52.130;21.270;2023-11-18T04:36:15;100806.75;;;18.39
76009;BMP280;64700;52.130;21.270;2023-11-18T04:38:41;100812.94;;;18.39
76009;BMP280;64700;52.130;21.270;2023-11-18T04:41:06;100804.06;;;18.39
76009;BMP280;64700;52.130;21.270;2023-11-18T04:43:31;100805.25;;;18.38
76009;BMP280;64700;52.130;21.270;2023-11-18T04:45:57;100808.72;;;18.38
76009;BMP280;64700;52.130;21.270;2023-11-18T04:48:22;100800.59;;;18.38
76009;BMP280;64700;52.130;21.270;2023-11-18T04:50:47;100812.94;;;18.39
76009;BMP280;64700;52.130;21.270;2023-11-18T04:53:12;100809.47;;;18.39
76009;BMP280;64700;52.130;21.270;2023-11-18T04:55:38;100808.72;;;18.38
76009;BMP280;64700;52.130;21.270;2023-11-18T04:58:03;100816.41;;;18.40
76009;BMP280;64700;52.130;21.270;2023-11-18T05:00:30;100811.00;;;18.40
76009;BMP280;64700;52.130;21.270;2023-11-18T05:02:56;100810.13;;;18.43
76009;BMP280;64700;52.130;21.270;2023-11-18T05:05:22;100824.28;;;18.47
76009;BMP280;64700;52.130;21.270;2023-11-18T05:07:47;100820.06;;;18.46
76009;BMP280;64700;52.130;21.270;2023-11-18T05:10:13;100824.72;;;18.45
76009;BMP280;64700;52.130;21.270;2023-11-18T05:12:38;100822.66;;;18.50
76009;BMP280;64700;52.130;21.270;2023-11-18T05:15:04;100827.63;;;18.51
76009;BMP280;64700;52.130;21.270;2023-11-18T05:17:32;100831.41;;;18.54
76009;BMP280;64700;52.130;21.270;2023-11-18T05:20:00;100835.22;;;18.56
76009;BMP280;64700;52.130;21.270;2023-11-18T05:22:25;100839.00;;;18.59
76009;BMP280;64700;52.130;21.270;2023-11-18T05:24:51;100839.63;;;18.63
76009;BMP280;64700;52.130;21.270;2023-11-18T05:27:16;100843.09;;;18.63
76009;BMP280;64700;52.130;21.270;2023-11-18T05:29:42;100856.19;;;18.65
76009;BMP280;64700;52.130;21.270;2023-11-18T05:32:10;100856.53;;;18.67
76009;BMP280;64700;52.130;21.270;2023-11-18T05:34:35;100860.75;;;18.68
76009;BMP280;64700;52.130;21.270;2023-11-18T05:37:00;100861.81;;;18.70
76009;BMP280;64700;52.130;21.270;2023-11-18T05:39:26;100861.03;;;18.70
76009;BMP280;64700;52.130;21.270;2023-11-18T05:41:53;100865.28;;;18.71
76009;BMP280;64700;52.130;21.270;2023-11-18T05:44:21;100860.19;;;18.73
76009;BMP280;64700;52.130;21.270;2023-11-18T05:46:55;100867.44;;;18.76
76009;BMP280;64700;52.130;21.270;2023-11-18T05:49:20;100872.72;;;18.79
76009;BMP280;64700;52.130;21.270;2023-11-18T05:51:49;100876.19;;;18.80
76009;BMP280;64700;52.130;21.270;2023-11-18T05:54:14;100874.13;;;18.84
76009;BMP280;64700;52.130;21.270;2023-11-18T05:56:39;100883.75;;;18.85
76009;BMP280;64700;52.130;21.270;2023-11-18T05:59:05;100887.13;;;18.89
76009;BMP280;64700;52.130;21.270;2023-11-18T06:01:30;100895.88;;;18.93
76009;BMP280;64700;52.130;21.270;2023-11-18T06:03:56;100894.25;;;18.96
76009;BMP280;64700;52.130;21.270;2023-11-18T06:06:22;100898.03;;;18.98
76009;BMP280;64700;52.130;21.270;2023-11-18T06:08:47;100902.69;;;18.98
76009;BMP280;64700;52.130;21.270;2023-11-18T06:11:13;100905.28;;;19.01
76009;BMP280;64700;52.130;21.270;2023-11-18T06:13:39;100907.56;;;19.03
76009;BMP280;64700;52.130;21.270;2023-11-18T06:16:07;100916.47;;;19.03
76009;BMP280;64700;52.130;21.270;2023-11-18T06:18:32;100912.56;;;19.04
76009;BMP280;64700;52.130;21.270;2023-11-18T06:20:58;100907.88;;;19.05
76009;BMP280;64700;52.130;21.270;2023-11-18T06:23:23;100909.84;;;19.04
76009;BMP280;64700;52.130;21.270;2023-11-18T06:25:48;100917.50;;;19.06
76009;BMP280;64700;52.130;21.270;2023-11-18T06:28:16;100916.31;;;19.07
76009;BMP280;64700;52.130;21.270;2023-11-18T06:30:41;100918.28;;;19.06
76009;BMP280;64700;52.130;21.270;2023-11-18T06:33:07;100917.41;;;19.09
76009;BMP280;64700;52.130;21.270;2023-11-18T06:35:32;100927.78;;;19.11
76009;BMP280;64700;52.130;21.270;2023-11-18T06:37:59;100939.81;;;19.10
76009;BMP280;64700;52.130;21.270;2023-11-18T06:40:24;100939.09;;;19.09
76009;BMP280;64700;52.130;21.270;2023-11-18T06:42:52;100949.19;;;19.09
76009;BMP280;64700;52.130;21.270;2023-11-18T06:45:19;100947.53;;;19.11
76009;BMP280;64700;52.130;21.270;2023-11-18T06:47:47;100945.25;;;19.10
76009;BMP280;64700;52.130;21.270;2023-11-18T06:50:14;100955.34;;;19.09
76009;BMP280;64700;52.130;21.270;2023-11-18T06:52:40;100955.66;;;19.11
76009;BMP280;64700;52.130;21.270;2023-11-18T06:55:08;100949.47;;;19.11
76009;BMP280;64700;52.130;21.270;2023-11-18T06:57:34;100956.84;;;19.10
76009;BMP280;64700;52.130;21.270;2023-11-18T06:59:59;100952.66;;;19.09
76009;BMP280;64700;52.130;21.270;2023-11-18T07:02:24;100966.50;;;19.11
76009;BMP280;64700;52.130;21.270;2023-11-18T07:04:50;100966.94;;;19.10
76009;BMP280;64700;52.130;21.270;2023-11-18T07:07:15;100970.72;;;19.12
76009;BMP280;64700;52.130;21.270;2023-11-18T07:09:41;100966.94;;;19.10
76009;BMP280;64700;52.130;21.270;2023-11-18T07:12:06;100979.28;;;19.11
76009;BMP280;64700;52.130;21.270;2023-11-18T07:14:33;100984.84;;;19.07
76009;BMP280;64700;52.130;21.270;2023-11-18T07:16:58;100985.47;;;19.11
76009;BMP280;64700;52.130;21.270;2023-11-18T07:19:23;100999.78;;;19.12
76009;BMP280;64700;52.130;21.270;2023-11-18T07:21:49;101001.75;;;19.11
76009;BMP280;64700;52.130;21.270;2023-11-18T07:24:14;100995.44;;;19.14
76009;BMP280;64700;52.130;21.270;2023-11-18T07:26:40;100993.84;;;19.17
76009;BMP280;64700;52.130;21.270;2023-11-18T07:29:05;100994.69;;;19.14
76009;BMP280;64700;52.130;21.270;2023-11-18T07:31:32;101006.28;;;19.14
76009;BMP280;64700;52.130;21.270;2023-11-18T07:33:58;101004.44;;;19.11
76009;BMP280;64700;52.130;21.270;2023-11-18T07:36:23;101011.22;;;19.28
76009;BMP280;64700;52.130;21.270;2023-11-18T07:38:48;101019.91;;;19.23
76009;BMP280;64700;52.130;21.270;2023-11-18T07:41:15;101015.81;;;19.19
76009;BMP280;64700;52.130;21.270;2023-11-18T07:43:51;101014.00;;;19.16
76009;BMP280;64700;52.130;21.270;2023-11-18T07:46:19;101013.66;;;19.14
76009;BMP280;64700;52.130;21.270;2023-11-18T07:48:47;101005.22;;;19.12
76009;BMP280;64700;52.130;21.270;2023-11-18T07:51:12;101002.16;;;19.10
76009;BMP280;64700;52.130;21.270;2023-11-18T07:53:39;101001.44;;;19.09
76009;BMP280;64700;52.130;21.270;2023-11-18T07:56:04;101006.84;;;19.09
76009;BMP280;64700;52.130;21.270;2023-11-18T07:58:31;101011.94;;;19.07
76009;BMP280;64700;52.130;21.270;2023-11-18T08:00:56;101011.94;;;19.07
76009;BMP280;64700;52.130;21.270;2023-11-18T08:03:22;101017.81;;;19.06
76009;BMP280;64700;52.130;21.270;2023-11-18T08:05:48;101023.22;;;19.06
76009;BMP280;64700;52.130;21.270;2023-11-18T08:08:14;101023.84;;;19.10
76009;BMP280;64700;52.130;21.270;2023-11-18T08:10:42;101032.75;;;19.10
76009;BMP280;64700;52.130;21.270;2023-11-18T08:13:08;101032.00;;;19.10
76009;BMP280;64700;52.130;21.270;2023-11-18T08:15:34;101039.38;;;19.09
76009;BMP280;64700;52.130;21.270;2023-11-18T08:18:00;101040.13;;;19.10
76009;BMP280;64700;52.130;21.270;2023-11-18T08:20:25;101041.22;;;19.12
76009;BMP280;64700;52.130;21.270;2023-11-18T08:22:50;101046.31;;;19.10
76009;BMP280;64700;52.130;21.270;2023-11-18T08:25:16;101052.94;;;19.09
76009;BMP280;64700;52.130;21.270;2023-11-18T08:27:42;101053.66;;;19.10
76009;BMP280;64700;52.130;21.270;2023-11-18T08:30:08;101055.66;;;19.09
76009;BMP280;64700;52.130;21.270;2023-11-18T08:32:39;101062.25;;;19.08
76009;BMP280;64700;52.130;21.270;2023-11-18T08:35:07;101061.19;;;19.06
76009;BMP280;64700;52.130;21.270;2023-11-18T08:37:34;101058.78;;;19.08
76009;BMP280;64700;52.130;21.270;2023-11-18T08:40:01;101069.75;;;19.04
76009;BMP280;64700;52.130;21.270;2023-11-18T08:42:26;101072.47;;;19.04
76009;BMP280;64700;52.130;21.270;2023-11-18T08:44:52;101073.97;;;19.05
76009;BMP280;64700;52.130;21.270;2023-11-18T08:47:20;101078.66;;;19.05
76009;BMP280;64700;52.130;21.270;2023-11-18T08:49:46;101081.78;;;19.03
76009;BMP280;64700;52.130;21.270;2023-11-18T08:52:11;101092.94;;;19.05
76009;BMP280;64700;52.130;21.270;2023-11-18T08:54:37;101093.81;;;19.02
76009;BMP280;64700;52.130;21.270;2023-11-18T08:57:06;101099.66;;;19.01
76009;BMP280;64700;52.130;21.270;2023-11-18T09:00:00;101101.06;;;19.31
76009;BMP280;64700;52.130;21.270;2023-11-18T09:02:32;101099.56;;;19.17
76009;BMP280;64700;52.130;21.270;2023-11-18T09:05:02;101097.38;;;19.12
76009;BMP280;64700;52.130;21.270;2023-11-18T09:07:31;101098.69;;;19.07
76009;BMP280;64700;52.130;21.270;2023-11-18T09:09:59;101092.50;;;19.07
76009;BMP280;64700;52.130;21.270;2023-11-18T09:12:27;101097.00;;;18.34
76009;BMP280;64700;52.130;21.270;2023-11-18T09:14:52;101102.44;;;18.05
76009;BMP280;64700;52.130;21.270;2023-11-18T09:17:19;101095.91;;;18.31
76009;BMP280;64700;52.130;21.270;2023-11-18T09:19:47;101090.03;;;18.20
76009;BMP280;64700;52.130;21.270;2023-11-18T09:22:12;101092.47;;;18.02
76009;BMP280;64700;52.130;21.270;2023-11-18T09:24:39;101090.81;;;18.21
76009;BMP280;64700;52.130;21.270;2023-11-18T09:27:05;101094.06;;;18.28
76009;BMP280;64700;52.130;21.270;2023-11-18T09:29:31;101090.22;;;18.42
76009;BMP280;64700;52.130;21.270;2023-11-18T09:31:57;101099.59;;;18.37
76009;BMP280;64700;52.130;21.270;2023-11-18T09:34:23;101098.75;;;18.40
76009;BMP280;64700;52.130;21.270;2023-11-18T09:36:52;101099.75;;;18.46
76009;BMP280;64700;52.130;21.270;2023-11-18T09:39:18;101104.50;;;18.42
76009;BMP280;64700;52.130;21.270;2023-11-18T09:41:57;101109.59;;;18.40
76009;BMP280;64700;52.130;21.270;2023-11-18T09:44:23;101112.53;;;18.46
76009;BMP280;64700;52.130;21.270;2023-11-18T09:46:50;101120.66;;;18.17
76009;BMP280;64700;52.130;21.270;2023-11-18T09:49:26;101123.94;;;18.25
76009;BMP280;64700;52.130;21.270;2023-11-18T09:51:58;101115.59;;;18.61
76009;BMP280;64700;52.130;21.270;2023-11-18T09:54:39;101119.41;;;18.76
76009;BMP280;64700;52.130;21.270;2023-11-18T09:57:16;101121.13;;;18.82
76009;BMP280;64700;52.130;21.270;2023-11-18T10:02:50;101123.41;;;18.84
76009;BMP280;64700;52.130;21.270;2023-11-18T10:05:15;101127.63;;;18.85
76009;BMP280;64700;52.130;21.270;2023-11-18T10:07:44;101127.63;;;18.85
76009;BMP280;64700;52.130;21.270;2023-11-18T10:10:12;101115.63;;;18.86
76009;BMP280;64700;52.130;21.270;2023-11-18T10:12:44;101115.63;;;18.86
76009;BMP280;64700;52.130;21.270;2023-11-18T10:15:11;101122.53;;;18.87
76009;BMP280;64700;52.130;21.270;2023-11-18T10:17:41;101122.53;;;18.87
76009;BMP280;64700;52.130;21.270;2023-11-18T10:20:20;101124.81;;;18.89
76009;BMP280;64700;52.130;21.270;2023-11-18T10:22:50;101131.00;;;18.89
76009;BMP280;64700;52.130;21.270;2023-11-18T10:25:23;101129.50;;;18.88
76009;BMP280;64700;52.130;21.270;2023-11-18T10:27:48;101132.66;;;18.87
76009;BMP280;64700;52.130;21.270;2023-11-18T10:30:14;101137.63;;;18.88
76009;BMP280;64700;52.130;21.270;2023-11-18T10:32:44;101131.00;;;18.89
76009;BMP280;64700;52.130;21.270;2023-11-18T10:35:20;101143.38;;;18.90
76009;BMP280;64700;52.130;21.270;2023-11-18T10:37:45;101140.31;;;18.88
76009;BMP280;64700;52.130;21.270;2023-11-18T10:40:11;101149.97;;;18.89
76009;BMP280;64700;52.130;21.270;2023-11-18T10:42:40;101141.84;;;18.89
76009;BMP280;64700;52.130;21.270;2023-11-18T10:45:05;101141.50;;;18.87
76009;BMP280;64700;52.130;21.270;2023-11-18T10:47:32;101137.63;;;18.88
76009;BMP280;64700;52.130;21.270;2023-11-18T10:49:58;101135.38;;;18.87
76009;BMP280;64700;52.130;21.270;2023-11-18T10:52:26;101140.31;;;18.88
76009;BMP280;64700;52.130;21.270;2023-11-18T10:54:55;101132.66;;;18.87
76009;BMP280;64700;52.130;21.270;2023-11-18T10:57:24;101133.38;;;18.87
76009;BMP280;64700;52.130;21.270;2023-11-18T10:59:58;101139.56;;;18.88
76009;BMP280;64700;52.130;21.270;2023-11-18T11:02:24;101144.56;;;18.89
76009;BMP280;64700;52.130;21.270;2023-11-18T11:04:49;101140.03;;;18.86
76009;BMP280;64700;52.130;21.270;2023-11-18T11:07:14;101149.31;;;18.85
76009;BMP280;64700;52.130;21.270;2023-11-18T11:09:40;101146.94;;;18.87
76009;BMP280;64700;52.130;21.270;2023-11-18T11:12:10;101142.59;;;18.90
76009;BMP280;64700;52.130;21.270;2023-11-18T11:14:44;101148.47;;;18.88
76009;BMP280;64700;52.130;21.270;2023-11-18T11:17:16;101152.34;;;18.87
76009;BMP280;64700;52.130;21.270;2023-11-18T11:22:14;101155.06;;;18.87
76009;BMP280;64700;52.130;21.270;2023-11-18T11:27:21;101161.25;;;18.88
76009;BMP280;64700;52.130;21.270;2023-11-18T11:29:59;101163.19;;;18.87
76009;BMP280;64700;52.130;21.270;2023-11-18T11:32:32;101169.06;;;18.85
76009;BMP280;64700;52.130;21.270;2023-11-18T11:35:03;101164.41;;;18.86
76009;BMP280;64700;52.130;21.270;2023-11-18T11:37:33;101166.66;;;18.88
76009;BMP280;64700;52.130;21.270;2023-11-18T11:40:00;101164.72;;;18.88
76009;BMP280;64700;52.130;21.270;2023-11-18T11:42:29;101171.31;;;18.87
76009;BMP280;64700;52.130;21.270;2023-11-18T11:44:56;101170.59;;;18.87
76009;BMP280;64700;52.130;21.270;2023-11-18T11:47:23;101167.44;;;18.88
76009;BMP280;64700;52.130;21.270;2023-11-18T11:49:55;101167.88;;;18.87
76009;BMP280;64700;52.130;21.270;2023-11-18T11:52:30;101171.31;;;18.87
76009;BMP280;64700;52.130;21.270;2023-11-18T11:55:07;101165.16;;;18.87
76009;BMP280;64700;52.130;21.270;2023-11-18T11:57:38;101179.91;;;18.85
76009;BMP280;64700;52.130;21.270;2023-11-18T12:00:03;101185.31;;;18.85
76009;BMP280;64700;52.130;21.270;2023-11-18T12:02:40;101189.94;;;18.85
76009;BMP280;64700;52.130;21.270;2023-11-18T12:05:15;101191.50;;;18.86
76009;BMP280;64700;52.130;21.270;2023-11-18T12:07:43;101188.78;;;18.86
76009;BMP280;64700;52.130;21.270;2023-11-18T12:10:11;101194.63;;;18.84
76009;BMP280;64700;52.130;21.270;2023-11-18T12:12:40;101196.94;;;18.86
76009;BMP280;64700;52.130;21.270;2023-11-18T12:15:07;101189.94;;;18.85
76009;BMP280;64700;52.130;21.270;2023-11-18T12:18:08;101192.31;;;18.83
76009;BMP280;64700;52.130;21.270;2023-11-18T12:20:38;101198.50;;;18.83
76009;BMP280;64700;52.130;21.270;2023-11-18T12:23:07;101193.84;;;18.84
76009;BMP280;64700;52.130;21.270;2023-11-18T12:25:39;101199.28;;;18.84
76009;BMP280;64700;52.130;21.270;2023-11-18T12:28:08;101202.84;;;18.81
76009;BMP280;64700;52.130;21.270;2023-11-18T12:33:05;101216.41;;;18.81
76009;BMP280;64700;52.130;21.270;2023-11-18T12:41:00;101224.19;;;18.79
76009;BMP280;64700;52.130;21.270;2023-11-18T12:48:41;101228.97;;;18.75
76009;BMP280;64700;52.130;21.270;2023-11-18T12:51:08;101225.84;;;18.76
76009;BMP280;64700;52.130;21.270;2023-11-18T12:53:44;101235.16;;;18.75
76009;BMP280;64700;52.130;21.270;2023-11-18T12:56:09;101235.56;;;18.74
76009;BMP280;64700;52.130;21.270;2023-11-18T12:58:38;101242.50;;;18.75
76009;BMP280;64700;52.130;21.270;2023-11-18T13:01:04;101246.97;;;18.81
76009;BMP280;64700;52.130;21.270;2023-11-18T13:03:29;101248.06;;;18.84
76009;BMP280;64700;52.130;21.270;2023-11-18T13:05:54;101259.00;;;18.80
76009;BMP280;64700;52.130;21.270;2023-11-18T13:08:21;101256.94;;;18.72
76009;BMP280;64700;52.130;21.270;2023-11-18T13:10:47;101259.28;;;18.70
76009;BMP280;64700;52.130;21.270;2023-11-18T13:13:13;101260.47;;;18.69
76009;BMP280;64700;52.130;21.270;2023-11-18T13:15:42;101262.09;;;18.66
76009;BMP280;64700;52.130;21.270;2023-11-18T13:18:07;101270.75;;;18.61
76009;BMP280;64700;52.130;21.270;2023-11-18T13:20:34;101276.59;;;18.60
76009;BMP280;64700;52.130;21.270;2023-11-18T13:23:02;101282.00;;;18.60
76009;BMP280;64700;52.130;21.270;2023-11-18T13:25:34;101298.50;;;18.65
76009;BMP280;64700;52.130;21.270;2023-11-18T13:27:59;101288.75;;;18.68
76009;BMP280;64700;52.130;21.270;2023-11-18T13:30:24;101294.19;;;18.68
76009;BMP280;64700;52.130;21.270;2023-11-18T13:32:49;101296.53;;;18.66
76009;BMP280;64700;52.130;21.270;2023-11-18T13:35:15;101298.94;;;18.64
76009;BMP280;64700;52.130;21.270;2023-11-18T13:37:46;101309.00;;;18.63
76009;BMP280;64700;52.130;21.270;2023-11-18T13:40:11;101304.00;;;18.62
76009;BMP280;64700;52.130;21.270;2023-11-18T13:42:38;101309.78;;;18.64
76009;BMP280;64700;52.130;21.270;2023-11-18T13:45:05;101315.63;;;18.62
76009;BMP280;64700;52.130;21.270;2023-11-18T13:47:36;101317.56;;;18.62
76009;BMP280;64700;52.130;21.270;2023-11-18T13:50:05;101329.16;;;18.62
76009;BMP280;64700;52.130;21.270;2023-11-18T13:52:31;101325.69;;;18.62
76009;BMP280;64700;52.130;21.270;2023-11-18T13:54:57;101331.88;;;18.62
76009;BMP280;64700;52.130;21.270;2023-11-18T13:57:23;101329.16;;;18.62
76009;BMP280;64700;52.130;21.270;2023-11-18T13:59:51;101337.28;;;18.62
76009;BMP280;64700;52.130;21.270;2023-11-18T14:02:16;101331.09;;;18.62
76009;BMP280;64700;52.130;21.270;2023-11-18T14:04:42;101335.75;;;18.61
76009;BMP280;64700;52.130;21.270;2023-11-18T14:07:14;101343.47;;;18.63